Time;durP1;ratioP1;P1;durP2;ratioP2;P2;SDS_P1;SDS_P2;PMS_P1;PMS_P2;Temp;Humidity;BMP_temperature;BMP_pressure;BME280_temperature;BME280_humidity;BME280_pressure;Samples;Min_cycle;Max_cycle;Signal;HPM_P1;HPM_P2
2022/11/20 01:45:36;;;;;;;48.60;23.83;;;-1.30;99.90;;;;;;5039063;27;20877;-73
2022/11/20 01:48:30;;;;;;;49.93;23.57;;;-1.20;99.90;;;;;;5059297;28;20227;-72
2022/11/20 01:51:26;;;;;;;51.83;25.47;;;-1.30;99.90;;;;;;5053239;28;20222;-74
2022/11/20 01:54:19;;;;;;;52.70;26.83;;;-1.30;99.90;;;;;;5044805;28;20246;-74
2022/11/20 01:57:11;;;;;;;57.70;27.80;;;-1.30;99.90;;;;;;5032863;28;20217;-73
2022/11/20 02:00:04;;;;;;;55.67;28.67;;;-1.40;99.90;;;;;;5043147;28;20295;-72
2022/11/20 02:03:02;;;;;;;53.67;27.00;;;-1.30;99.90;;;;;;5055681;28;20236;-73
2022/11/20 02:05:55;;;;;;;58.90;28.97;;;-1.20;99.90;;;;;;5059799;28;20230;-72
2022/11/20 02:08:44;;;;;;;60.20;28.57;;;-1.10;99.90;;;;;;5049669;28;20231;-74
2022/11/20 02:11:33;;;;;;;58.50;28.80;;;-1.20;99.90;;;;;;5054280;28;20239;-73
2022/11/20 02:14:22;;;;;;;51.97;28.40;;;-0.90;99.90;;;;;;5032821;28;20227;-74
2022/11/20 02:17:10;;;;;;;53.93;28.13;;;-1.10;99.90;;;;;;5049863;28;20312;-73
2022/11/20 02:19:59;;;;;;;55.27;29.47;;;-1.10;99.90;;;;;;5067895;28;20230;-75
2022/11/20 02:22:55;;;;;;;54.63;27.83;;;-0.90;99.90;;;;;;5077144;28;20222;-74
2022/11/20 02:25:47;;;;;;;59.73;30.10;;;-0.90;99.90;;;;;;5077665;28;20216;-74
2022/11/20 02:28:36;;;;;;;55.47;28.90;;;-0.90;99.90;;;;;;5076560;28;20228;-73
2022/11/20 02:31:24;;;;;;;55.40;28.23;;;-0.90;99.90;;;;;;5069194;28;20590;-74
2022/11/20 02:34:13;;;;;;;56.87;29.23;;;-0.70;99.90;;;;;;5094767;28;20230;-74
2022/11/20 02:37:02;;;;;;;59.23;29.33;;;-0.70;99.90;;;;;;5092901;28;20377;-74
2022/11/20 02:39:52;;;;;;;57.53;29.30;;;-0.80;99.90;;;;;;5094321;28;20230;-75
2022/11/20 02:42:42;;;;;;;51.87;27.97;;;-0.70;99.90;;;;;;5080851;28;20227;-74
2022/11/20 02:45:31;;;;;;;54.23;28.80;;;-0.80;99.90;;;;;;5095573;28;20261;-73
2022/11/20 02:48:19;;;;;;;57.20;28.17;;;-0.70;99.90;;;;;;5083430;28;20219;-73
2022/11/20 02:51:08;;;;;;;54.97;27.90;;;-1.00;99.90;;;;;;5096362;28;20264;-74
2022/11/20 02:53:57;;;;;;;53.30;28.70;;;-1.00;99.90;;;;;;5076768;28;20720;-75
2022/11/20 02:56:45;;;;;;;55.83;27.87;;;-0.90;99.90;;;;;;5077115;28;20223;-73
2022/11/20 02:59:35;;;;;;;61.13;29.80;;;-0.90;99.90;;;;;;5077917;28;20223;-73
2022/11/20 03:02:24;;;;;;;58.23;29.43;;;-1.00;99.90;;;;;;5077017;28;21166;-73
2022/11/20 03:05:12;;;;;;;57.13;29.07;;;-0.90;99.90;;;;;;5077259;28;20215;-74
2022/11/20 03:08:01;;;;;;;62.30;29.07;;;-1.10;99.90;;;;;;5069969;28;20238;-74
2022/11/20 03:10:49;;;;;;;56.17;28.57;;;-1.00;99.90;;;;;;5064788;28;20224;-74
2022/11/20 03:13:38;;;;;;;61.77;31.37;;;-0.90;99.90;;;;;;5066407;28;20216;-74
2022/11/20 03:16:28;;;;;;;57.87;30.17;;;-1.00;99.90;;;;;;5063416;28;20223;-73
2022/11/20 03:19:17;;;;;;;58.47;31.20;;;-1.00;99.90;;;;;;5068112;28;20226;-73
2022/11/20 03:22:06;;;;;;;58.67;29.90;;;-1.10;99.90;;;;;;5066750;28;20633;-73
2022/11/20 03:24:55;;;;;;;58.47;30.47;;;-1.10;99.90;;;;;;5071534;28;20368;-73
2022/11/20 03:27:43;;;;;;;60.23;30.70;;;-0.80;99.90;;;;;;5079458;28;20227;-74
2022/11/20 03:30:32;;;;;;;64.13;31.87;;;-1.00;99.90;;;;;;5069231;28;20215;-73
2022/11/20 03:33:22;;;;;;;59.57;31.23;;;-1.00;99.90;;;;;;5064945;28;20445;-73
2022/11/20 03:36:13;;;;;;;62.17;31.27;;;-1.10;99.90;;;;;;5066206;28;20219;-72
2022/11/20 03:39:02;;;;;;;64.27;32.17;;;-1.20;99.90;;;;;;5064684;28;20227;-73
2022/11/20 03:41:50;;;;;;;63.30;31.10;;;-1.40;99.90;;;;;;5065910;28;20258;-74
2022/11/20 03:44:39;;;;;;;61.20;31.70;;;-1.60;99.90;;;;;;5057861;28;20234;-74
2022/11/20 03:47:28;;;;;;;66.77;30.20;;;-1.50;99.90;;;;;;5065241;28;20653;-71
2022/11/20 03:50:18;;;;;;;66.57;31.70;;;-1.50;99.90;;;;;;5062366;28;20280;-74
2022/11/20 03:53:06;;;;;;;67.27;31.80;;;-1.50;99.90;;;;;;5081922;28;20240;-73
2022/11/20 03:55:55;;;;;;;62.17;32.10;;;-1.50;99.90;;;;;;5078065;28;20372;-73
2022/11/20 03:58:44;;;;;;;62.80;32.43;;;-1.50;99.90;;;;;;5080313;28;20222;-73
2022/11/20 04:01:35;;;;;;;62.33;31.33;;;-1.40;99.90;;;;;;5066493;28;20354;-73
2022/11/20 04:04:24;;;;;;;61.33;31.87;;;-1.50;99.90;;;;;;5082581;28;20225;-73
2022/11/20 04:07:14;;;;;;;63.20;32.77;;;-1.40;99.90;;;;;;5079914;28;20783;-72
2022/11/20 04:10:03;;;;;;;63.63;31.57;;;-1.50;99.90;;;;;;5074467;28;20586;-73
2022/11/20 04:12:51;;;;;;;63.27;31.00;;;-1.40;99.90;;;;;;5064139;28;20238;-73
2022/11/20 04:15:41;;;;;;;59.50;31.10;;;-1.30;99.90;;;;;;5080688;28;20282;-72
2022/11/20 04:18:29;;;;;;;62.10;31.37;;;-1.30;99.90;;;;;;5067562;28;20212;-73
2022/11/20 04:21:18;;;;;;;60.53;31.07;;;-1.70;99.90;;;;;;5062087;28;20219;-72
2022/11/20 04:24:10;;;;;;;60.33;31.00;;;-1.50;99.90;;;;;;5082439;28;20326;-74
2022/11/20 04:26:58;;;;;;;63.00;31.80;;;-1.70;99.90;;;;;;5081019;28;20257;-72
2022/11/20 04:29:47;;;;;;;66.80;32.77;;;-1.40;99.90;;;;;;5065486;28;20306;-72
2022/11/20 04:32:35;;;;;;;58.73;31.37;;;-1.60;99.90;;;;;;5081578;28;21284;-72
2022/11/20 04:35:23;;;;;;;64.70;31.57;;;-1.60;99.90;;;;;;5068653;28;20219;-72
2022/11/20 04:38:12;;;;;;;60.63;30.97;;;-1.50;99.90;;;;;;5069201;28;20267;-71
2022/11/20 04:41:06;;;;;;;63.80;31.47;;;-1.60;99.90;;;;;;5081512;28;20247;-73
2022/11/20 04:43:59;;;;;;;56.50;30.73;;;-1.70;99.90;;;;;;5079775;28;20345;-71
2022/11/20 04:46:48;;;;;;;62.87;31.93;;;-1.50;99.90;;;;;;5081573;28;20211;-71
2022/11/20 04:49:36;;;;;;;61.83;30.23;;;-1.50;99.90;;;;;;5068810;28;20295;-72
2022/11/20 04:52:25;;;;;;;59.80;30.50;;;-1.70;99.90;;;;;;5074214;28;20631;-73
2022/11/20 04:55:13;;;;;;;57.07;29.40;;;-1.60;99.90;;;;;;5080286;28;20224;-73
2022/11/20 04:58:03;;;;;;;57.60;29.83;;;-1.60;99.90;;;;;;5076547;28;20252;-72
2022/11/20 05:00:52;;;;;;;57.93;30.23;;;-1.40;99.90;;;;;;5067620;28;20230;-74
2022/11/20 05:03:41;;;;;;;61.33;30.13;;;-1.40;99.90;;;;;;5080249;28;20730;-72
2022/11/20 05:06:30;;;;;;;58.17;29.13;;;-1.70;99.90;;;;;;5064253;28;20231;-73
2022/11/20 05:09:19;;;;;;;56.90;30.80;;;-1.70;99.90;;;;;;5081162;28;20234;-72
2022/11/20 05:12:08;;;;;;;57.07;30.20;;;-1.40;99.90;;;;;;5075740;28;20232;-73
2022/11/20 05:14:58;;;;;;;60.33;29.87;;;-1.80;99.90;;;;;;5066666;28;20224;-74
2022/11/20 05:17:49;;;;;;;56.37;28.97;;;-1.70;99.90;;;;;;5060839;28;20228;-74
2022/11/20 05:20:37;;;;;;;53.20;28.53;;;-1.80;99.90;;;;;;5076748;28;20231;-73
2022/11/20 05:23:26;;;;;;;59.07;30.57;;;-1.80;99.90;;;;;;5063783;28;20218;-73
2022/11/20 05:26:17;;;;;;;61.53;29.20;;;-1.60;99.90;;;;;;5077128;28;20246;-73
2022/11/20 05:29:05;;;;;;;55.50;28.17;;;-1.90;99.90;;;;;;5078510;28;20249;-73
2022/11/20 05:31:55;;;;;;;55.30;27.13;;;-1.80;99.90;;;;;;5067624;28;20230;-73
2022/11/20 05:34:44;;;;;;;57.37;28.27;;;-1.70;99.90;;;;;;5074285;28;20215;-73
2022/11/20 05:37:32;;;;;;;51.43;27.43;;;-1.40;99.90;;;;;;5075259;28;20273;-73
2022/11/20 05:40:21;;;;;;;48.90;25.67;;;-1.40;99.90;;;;;;5073241;28;20247;-73
2022/11/20 05:43:09;;;;;;;51.30;27.40;;;-1.60;99.90;;;;;;5077396;28;20239;-74
2022/11/20 05:45:58;;;;;;;52.90;26.80;;;-1.30;99.90;;;;;;5061317;28;20307;-72
2022/11/20 05:48:48;;;;;;;51.63;26.63;;;-1.50;99.90;;;;;;5080668;28;20222;-71
2022/11/20 05:51:36;;;;;;;48.50;25.50;;;-1.60;99.90;;;;;;5058852;28;20243;-72
2022/11/20 05:54:25;;;;;;;47.33;26.43;;;-1.60;99.90;;;;;;5081783;28;20219;-73
2022/11/20 05:57:14;;;;;;;54.47;26.53;;;-1.40;99.90;;;;;;5066762;28;20220;-72
2022/11/20 06:00:03;;;;;;;52.77;27.03;;;-1.30;99.90;;;;;;5072553;28;20539;-70
2022/11/20 06:02:52;;;;;;;49.67;26.80;;;-1.50;99.90;;;;;;5061981;28;20229;-72
2022/11/20 06:05:42;;;;;;;48.27;26.13;;;-1.50;99.90;;;;;;5075553;28;20939;-71
2022/11/20 06:08:31;;;;;;;50.20;26.77;;;-1.70;99.90;;;;;;5079818;28;20217;-71
2022/11/20 06:11:20;;;;;;;49.87;26.67;;;-1.80;99.90;;;;;;5073005;28;20221;-72
2022/11/20 06:14:09;;;;;;;49.30;26.87;;;-1.90;99.90;;;;;;5074535;28;20239;-72
2022/11/20 06:16:57;;;;;;;54.93;27.57;;;-1.70;99.90;;;;;;5073131;28;20757;-73
2022/11/20 06:19:45;;;;;;;49.60;26.43;;;-1.80;99.90;;;;;;5079150;28;20247;-72
2022/11/20 06:22:35;;;;;;;51.17;26.20;;;-1.80;99.90;;;;;;5056636;28;20235;-72
2022/11/20 06:25:24;;;;;;;50.40;26.27;;;-1.80;99.90;;;;;;5061002;28;20216;-73
2022/11/20 06:28:12;;;;;;;53.43;26.53;;;-1.40;99.90;;;;;;5065029;28;20233;-71
2022/11/20 06:31:01;;;;;;;52.13;26.83;;;-1.90;99.90;;;;;;5080813;28;20223;-72
2022/11/20 06:33:50;;;;;;;54.70;26.27;;;-1.60;99.90;;;;;;5063450;28;20314;-72
2022/11/20 06:36:39;;;;;;;52.47;27.13;;;-1.90;99.90;;;;;;5082784;28;20233;-70
2022/11/20 06:39:29;;;;;;;50.73;27.53;;;-1.60;99.90;;;;;;5069509;28;20225;-73
2022/11/20 06:42:17;;;;;;;54.27;27.80;;;-1.70;99.90;;;;;;5067652;28;20714;-73
2022/11/20 06:45:07;;;;;;;61.57;29.27;;;-1.90;99.90;;;;;;5067505;28;20242;-72
2022/11/20 06:47:58;;;;;;;53.93;28.10;;;-1.80;99.90;;;;;;5078216;28;20312;-72
2022/11/20 06:50:46;;;;;;;51.83;27.40;;;-1.80;99.90;;;;;;5066901;28;20222;-71
2022/11/20 06:53:35;;;;;;;60.97;29.47;;;-1.60;99.90;;;;;;5079839;28;20220;-73
2022/11/20 06:56:25;;;;;;;54.63;29.03;;;-1.70;99.90;;;;;;5068040;28;20324;-75
2022/11/20 06:59:14;;;;;;;61.53;29.40;;;-1.60;99.90;;;;;;5066083;28;20234;-75
2022/11/20 07:02:03;;;;;;;55.60;28.57;;;-1.60;99.90;;;;;;5083076;28;20495;-73
2022/11/20 07:04:51;;;;;;;52.97;28.47;;;-1.70;99.90;;;;;;5064069;28;20230;-73
2022/11/20 07:07:40;;;;;;;61.97;30.33;;;-1.70;99.90;;;;;;5063502;28;20245;-72
2022/11/20 07:10:29;;;;;;;57.43;29.30;;;-1.70;99.90;;;;;;5080402;28;20222;-74
2022/11/20 07:13:18;;;;;;;55.40;29.07;;;-1.60;99.90;;;;;;5075775;28;20826;-74
2022/11/20 07:16:09;;;;;;;60.63;29.17;;;-1.60;99.90;;;;;;5075587;28;20244;-72
2022/11/20 07:18:57;;;;;;;58.50;28.70;;;-1.50;99.90;;;;;;5076197;28;20244;-74
2022/11/20 07:21:46;;;;;;;53.80;28.67;;;-1.70;99.90;;;;;;5076528;28;20211;-75
2022/11/20 07:24:34;;;;;;;59.27;29.57;;;-1.50;99.90;;;;;;5067875;28;20222;-73
2022/11/20 07:27:23;;;;;;;55.80;29.17;;;-1.50;99.90;;;;;;5060574;28;20230;-73
2022/11/20 07:30:14;;;;;;;58.80;29.50;;;-1.70;99.90;;;;;;5063688;28;20230;-73
2022/11/20 07:33:03;;;;;;;58.10;29.63;;;-1.80;99.90;;;;;;5074617;28;20238;-74
2022/11/20 07:35:55;;;;;;;56.43;28.03;;;-1.80;99.90;;;;;;5064496;28;20261;-71
2022/11/20 07:38:44;;;;;;;61.47;29.70;;;-1.60;99.90;;;;;;5062660;28;20592;-73
2022/11/20 07:41:34;;;;;;;60.07;29.57;;;-1.50;99.90;;;;;;5076352;28;20229;-74
2022/11/20 07:44:22;;;;;;;55.07;29.10;;;-1.50;99.90;;;;;;5070094;28;20626;-74
2022/11/20 07:47:12;;;;;;;60.07;29.17;;;-1.30;99.90;;;;;;5069129;28;20345;-74
2022/11/20 07:50:01;;;;;;;57.83;29.23;;;-1.50;99.90;;;;;;5076289;28;20247;-74
2022/11/20 07:52:50;;;;;;;61.83;29.07;;;-1.30;99.90;;;;;;5076484;28;20220;-73
2022/11/20 07:55:38;;;;;;;57.17;29.77;;;-0.90;99.90;;;;;;5078153;28;20240;-72
2022/11/20 07:58:29;;;;;;;55.03;28.50;;;-1.00;99.90;;;;;;5059977;28;20902;-73
2022/11/20 08:01:17;;;;;;;58.00;28.80;;;-0.80;99.90;;;;;;5082046;28;20262;-73
2022/11/20 08:04:07;;;;;;;60.73;30.47;;;-1.00;99.90;;;;;;5077253;28;20221;-71
2022/11/20 08:06:56;;;;;;;55.50;29.83;;;-1.10;99.90;;;;;;5077010;28;20227;-74
2022/11/20 08:09:46;;;;;;;55.93;29.57;;;-1.20;99.90;;;;;;5075254;28;21114;-73
2022/11/20 08:15:41;;;;;;;61.50;30.53;;;-1.00;99.90;;;;;;5074189;28;20219;-72
2022/11/20 08:18:29;;;;;;;62.63;31.43;;;-1.20;99.90;;;;;;5075622;28;21085;-73
2022/11/20 08:21:21;;;;;;;58.13;31.33;;;-1.20;99.90;;;;;;5073577;28;20254;-73
2022/11/20 08:24:10;;;;;;;57.43;31.40;;;-0.80;99.90;;;;;;5075902;28;20242;-73
2022/11/20 08:26:59;;;;;;;60.77;31.30;;;-0.60;99.90;;;;;;5058248;28;20319;-74
2022/11/20 08:29:48;;;;;;;61.97;31.97;;;-1.10;99.90;;;;;;5072086;28;20283;-73
2022/11/20 08:32:37;;;;;;;61.83;31.60;;;-0.80;99.90;;;;;;5057758;28;20230;-74
2022/11/20 08:35:26;;;;;;;60.43;32.10;;;-0.50;99.90;;;;;;5071757;28;20225;-73
2022/11/20 08:38:16;;;;;;;61.10;32.10;;;-0.40;99.90;;;;;;5064937;28;20582;-72
2022/11/20 08:44:11;;;;;;;59.67;32.93;;;-0.20;99.90;;;;;;5055018;28;20227;-72
2022/11/20 08:47:01;;;;;;;64.23;32.93;;;-0.30;99.90;;;;;;5074276;28;20240;-72
2022/11/20 08:49:50;;;;;;;63.13;32.10;;;-0.20;99.90;;;;;;5061965;28;20222;-73
2022/11/20 08:52:39;;;;;;;62.33;33.10;;;-0.20;99.90;;;;;;5062893;28;20456;-69
2022/11/20 08:55:29;;;;;;;60.13;31.03;;;-0.40;99.90;;;;;;5073717;28;20220;-73
2022/11/20 08:58:17;;;;;;;74.37;33.33;;;-0.30;99.90;;;;;;5074646;28;20232;-71
2022/11/20 09:01:06;;;;;;;68.17;33.60;;;-0.30;99.90;;;;;;5073463;28;20333;-73
2022/11/20 09:03:56;;;;;;;62.27;33.73;;;-0.10;99.90;;;;;;5073724;28;20238;-75
2022/11/20 09:06:45;;;;;;;63.80;33.87;;;0.00;99.90;;;;;;5061104;28;20901;-72
2022/11/20 09:09:34;;;;;;;62.67;33.63;;;-0.20;99.90;;;;;;5070285;28;20219;-74
2022/11/20 09:12:24;;;;;;;67.17;34.03;;;-0.50;99.90;;;;;;5071381;28;20978;-74
2022/11/20 09:15:12;;;;;;;66.57;33.77;;;-0.50;99.90;;;;;;5073733;28;20248;-74
2022/11/20 09:18:03;;;;;;;65.67;34.53;;;-0.60;99.90;;;;;;5062278;28;20227;-73
2022/11/20 09:20:51;;;;;;;65.40;33.23;;;0.00;99.90;;;;;;5055526;28;20491;-72
2022/11/20 09:23:40;;;;;;;67.10;34.30;;;-0.10;99.90;;;;;;5075021;28;20744;-72
2022/11/20 09:26:29;;;;;;;62.70;33.27;;;-0.30;99.90;;;;;;5069950;28;20247;-73
2022/11/20 09:29:19;;;;;;;63.93;35.13;;;-0.30;99.90;;;;;;5069888;28;20262;-71
2022/11/20 09:32:10;;;;;;;66.23;33.93;;;0.00;99.90;;;;;;5062678;28;20360;-73
2022/11/20 09:34:58;;;;;;;70.43;34.10;;;-0.10;99.90;;;;;;5074681;28;20216;-73
2022/11/20 09:37:48;;;;;;;69.93;34.97;;;0.10;99.90;;;;;;5075812;28;20224;-73
2022/11/20 09:40:40;;;;;;;61.97;33.20;;;0.10;99.90;;;;;;5059213;28;20236;-72
2022/11/20 09:43:42;;;;;;;67.10;33.97;;;0.10;99.90;;;;;;5082298;28;20311;-72
2022/11/20 09:46:41;;;;;;;61.87;33.87;;;0.20;99.90;;;;;;5053482;28;20222;-73
2022/11/20 09:49:39;;;;;;;65.80;34.23;;;0.00;99.90;;;;;;5075641;28;20227;-73
2022/11/20 09:52:38;;;;;;;60.47;32.37;;;0.00;99.90;;;;;;5059595;28;20235;-73
2022/11/20 09:56:12;;;;;;;65.57;33.73;;;0.00;99.90;;;;;;5046973;27;20650;-74
2022/11/20 09:59:21;;;;;;;65.30;33.97;;;0.10;99.90;;;;;;5049577;28;20235;-73
2022/11/20 10:02:28;;;;;;;62.10;33.37;;;0.30;99.90;;;;;;5046652;28;20245;-74
2022/11/20 10:05:22;;;;;;;62.70;33.07;;;0.40;99.90;;;;;;5045843;28;20255;-74
2022/11/20 10:08:18;;;;;;;64.60;33.80;;;0.50;99.90;;;;;;5044929;28;20311;-76
2022/11/20 10:11:15;;;;;;;65.27;34.07;;;0.40;99.90;;;;;;5050602;28;20322;-73
2022/11/20 10:14:17;;;;;;;67.83;34.07;;;0.50;99.90;;;;;;5047675;28;20220;-72
2022/11/20 10:17:18;;;;;;;62.20;33.17;;;0.60;99.90;;;;;;5044234;28;20315;-74
2022/11/20 10:20:20;;;;;;;59.07;31.47;;;0.50;99.90;;;;;;5054147;28;21068;-70
2022/11/20 10:23:30;;;;;;;60.27;31.37;;;0.60;99.90;;;;;;5049322;28;20620;-70
2022/11/20 10:26:26;;;;;;;57.40;32.20;;;0.60;99.90;;;;;;5064946;28;20227;-71
2022/11/20 10:29:17;;;;;;;59.70;32.73;;;0.70;99.90;;;;;;5073132;28;20211;-71
2022/11/20 10:32:15;;;;;;;64.47;32.97;;;0.80;99.90;;;;;;5084983;28;20226;-71
2022/11/20 10:35:09;;;;;;;60.70;32.97;;;0.80;99.90;;;;;;5082566;28;20223;-72
2022/11/20 10:38:01;;;;;;;59.60;31.73;;;0.90;99.90;;;;;;5061321;28;20226;-75
2022/11/20 10:40:53;;;;;;;63.73;32.30;;;0.90;99.90;;;;;;5076482;28;21121;-74
2022/11/20 10:43:50;;;;;;;58.50;32.00;;;1.00;99.90;;;;;;5063549;28;20220;-73
2022/11/20 10:46:44;;;;;;;59.67;31.07;;;1.00;99.90;;;;;;5063993;28;20229;-73
2022/11/20 10:49:34;;;;;;;65.90;32.73;;;1.10;99.90;;;;;;5090475;28;20237;-74
2022/11/20 10:52:31;;;;;;;61.27;33.57;;;1.20;99.90;;;;;;5077373;28;20340;-75
2022/11/20 10:55:31;;;;;;;58.90;32.03;;;1.20;99.90;;;;;;5062630;28;20227;-74
2022/11/20 10:58:28;;;;;;;63.40;31.77;;;1.20;99.90;;;;;;5063913;28;20246;-74
2022/11/20 11:01:21;;;;;;;56.63;30.10;;;1.30;99.90;;;;;;5063621;28;20223;-74
2022/11/20 11:04:24;;;;;;;63.17;31.57;;;1.50;99.90;;;;;;5079333;28;20246;-73
2022/11/20 11:07:18;;;;;;;59.10;31.13;;;1.50;99.90;;;;;;5067428;28;20227;-74
2022/11/20 11:10:15;;;;;;;50.10;28.97;;;1.60;99.90;;;;;;5052296;28;20272;-74
2022/11/20 11:13:04;;;;;;;53.60;29.90;;;1.50;99.90;;;;;;5051417;28;20211;-75
2022/11/20 11:15:53;;;;;;;52.43;30.00;;;1.60;99.90;;;;;;5050796;28;20227;-73
2022/11/20 11:18:43;;;;;;;58.10;30.67;;;1.60;99.90;;;;;;5066345;28;20228;-74
2022/11/20 11:21:32;;;;;;;58.73;29.40;;;1.70;99.90;;;;;;5048606;28;20223;-74
2022/11/20 11:24:23;;;;;;;53.43;30.23;;;1.70;99.90;;;;;;5048481;28;21385;-75
2022/11/20 11:27:29;;;;;;;48.27;28.20;;;1.70;99.90;;;;;;5065561;28;20640;-74
2022/11/20 11:30:20;;;;;;;53.83;29.40;;;1.80;99.90;;;;;;5052158;28;20231;-72
2022/11/20 11:33:12;;;;;;;54.23;27.30;;;1.90;99.90;;;;;;5067395;28;20253;-74
2022/11/20 11:36:05;;;;;;;54.20;28.87;;;1.90;99.90;;;;;;5065638;28;20220;-75
2022/11/20 11:38:54;;;;;;;53.87;29.50;;;1.80;99.90;;;;;;5052901;28;20285;-73
2022/11/20 11:41:43;;;;;;;53.53;29.97;;;1.90;99.90;;;;;;5066381;28;20301;-75
2022/11/20 11:47:47;;;;;;;51.20;28.73;;;1.90;99.90;;;;;;5065553;28;21384;-74
2022/11/20 11:50:36;;;;;;;58.07;30.10;;;1.90;99.90;;;;;;5049667;28;20223;-74
2022/11/20 11:53:28;;;;;;;49.90;27.97;;;1.90;99.90;;;;;;5075034;28;20223;-74
2022/11/20 11:56:17;;;;;;;55.43;29.10;;;1.90;99.90;;;;;;5050538;28;20242;-73
2022/11/20 11:59:12;;;;;;;55.43;29.80;;;1.90;99.90;;;;;;5068444;28;20249;-74
2022/11/20 12:02:13;;;;;;;50.20;27.97;;;2.10;99.90;;;;;;5048753;28;20740;-74
2022/11/20 12:05:09;;;;;;;53.90;29.93;;;2.10;99.90;;;;;;5047313;28;20223;-74
2022/11/20 12:08:03;;;;;;;49.67;28.07;;;2.10;99.90;;;;;;5062754;28;20326;-74
2022/11/20 12:11:07;;;;;;;57.43;28.87;;;2.00;99.90;;;;;;5051349;28;21424;-74
2022/11/20 12:14:04;;;;;;;55.57;29.63;;;2.10;99.90;;;;;;5063890;28;20234;-74
2022/11/20 12:16:55;;;;;;;51.87;28.27;;;2.00;99.90;;;;;;5048720;28;20232;-74
2022/11/20 12:19:44;;;;;;;56.10;28.70;;;2.00;99.90;;;;;;5063230;28;20234;-74
2022/11/20 12:22:42;;;;;;;50.17;27.13;;;2.10;99.90;;;;;;5059481;28;20233;-74
2022/11/20 12:25:33;;;;;;;53.63;27.43;;;2.10;99.90;;;;;;5064706;28;20589;-71
2022/11/20 12:28:38;;;;;;;48.73;26.43;;;2.20;99.90;;;;;;5064251;28;20231;-74
2022/11/20 12:31:53;;;;;;;46.97;25.03;;;2.20;99.90;;;;;;5047133;28;20231;-72
2022/11/20 12:34:53;;;;;;;47.63;25.93;;;2.20;99.90;;;;;;5051287;28;20228;-73
2022/11/20 12:37:49;;;;;;;47.47;26.40;;;2.10;99.90;;;;;;5065925;28;20922;-73
2022/11/20 12:40:45;;;;;;;47.80;26.17;;;2.20;99.90;;;;;;5065213;28;20284;-74
2022/11/20 12:46:59;;;;;;;45.20;25.53;;;2.00;99.90;;;;;;5052047;28;20223;-74
2022/11/20 12:49:57;;;;;;;46.23;26.40;;;2.10;99.90;;;;;;5048678;28;20223;-74
2022/11/20 12:52:52;;;;;;;53.53;29.27;;;2.10;99.90;;;;;;5046856;28;20227;-73
2022/11/20 12:55:50;;;;;;;56.03;27.57;;;2.10;99.90;;;;;;5051636;28;20231;-74
2022/11/20 12:58:48;;;;;;;52.30;28.33;;;2.20;99.90;;;;;;5065672;28;20244;-74
2022/11/20 13:01:44;;;;;;;49.63;27.30;;;2.20;99.90;;;;;;5065130;28;20779;-74
2022/11/20 13:04:49;;;;;;;46.17;26.70;;;2.20;99.90;;;;;;5048509;28;20235;-74
2022/11/20 13:07:39;;;;;;;52.43;29.00;;;2.30;99.90;;;;;;5048787;28;20232;-74
2022/11/20 13:10:35;;;;;;;53.43;31.50;;;2.20;99.90;;;;;;5065487;28;20766;-76
2022/11/20 13:13:35;;;;;;;56.77;30.87;;;2.20;99.90;;;;;;5065534;28;20227;-73
2022/11/20 13:16:34;;;;;;;50.27;29.13;;;2.10;99.90;;;;;;5061884;28;21010;-74
2022/11/20 13:19:23;;;;;;;54.00;29.80;;;2.10;99.90;;;;;;5045615;28;20227;-74
2022/11/20 13:22:12;;;;;;;54.77;29.97;;;2.00;99.90;;;;;;5044174;28;20231;-74
2022/11/20 13:25:00;;;;;;;55.97;29.73;;;2.10;99.90;;;;;;5063298;28;20232;-74
2022/11/20 13:27:50;;;;;;;54.37;31.23;;;2.20;99.90;;;;;;5049632;28;20227;-74
2022/11/20 13:30:51;;;;;;;57.23;31.00;;;2.10;99.90;;;;;;5051342;28;20252;-77
2022/11/20 13:33:41;;;;;;;58.97;30.00;;;2.00;99.90;;;;;;5046327;28;20220;-72
2022/11/20 13:36:32;;;;;;;64.73;33.17;;;2.10;99.90;;;;;;5044797;28;20242;-72
2022/11/20 13:39:27;;;;;;;53.90;30.40;;;2.10;99.90;;;;;;5044811;28;20725;-73
2022/11/20 13:42:26;;;;;;;56.20;30.77;;;2.10;99.90;;;;;;5045174;28;20262;-73
2022/11/20 13:45:24;;;;;;;58.33;31.63;;;2.00;99.90;;;;;;5043602;28;20225;-72
2022/11/20 13:48:23;;;;;;;58.40;31.43;;;2.10;99.90;;;;;;5045303;28;20271;-73
2022/11/20 13:51:26;;;;;;;59.97;32.63;;;2.00;99.90;;;;;;5061453;28;20320;-72
2022/11/20 13:54:33;;;;;;;51.87;29.97;;;1.90;99.90;;;;;;5046709;28;20328;-73
2022/11/20 13:57:49;;;;;;;53.17;31.27;;;1.90;99.90;;;;;;5062510;28;20222;-72
2022/11/20 14:00:58;;;;;;;58.27;30.90;;;1.90;99.90;;;;;;5049660;28;21105;-72
2022/11/20 14:03:48;;;;;;;55.87;31.63;;;1.90;99.90;;;;;;5061455;28;20307;-72
2022/11/20 14:06:55;;;;;;;53.47;30.53;;;1.90;99.90;;;;;;5045818;28;20293;-72
2022/11/20 14:09:52;;;;;;;54.77;29.30;;;1.90;99.90;;;;;;5060652;28;20333;-73
2022/11/20 14:12:41;;;;;;;53.50;31.07;;;1.80;99.90;;;;;;5043314;28;20227;-74
2022/11/20 14:15:31;;;;;;;57.97;30.50;;;1.80;99.90;;;;;;5064858;28;20228;-72
2022/11/20 14:18:22;;;;;;;59.27;31.23;;;1.80;99.90;;;;;;5048273;28;20220;-72
2022/11/20 14:21:11;;;;;;;54.07;31.27;;;1.80;99.90;;;;;;5044976;28;20227;-72
2022/11/20 14:24:11;;;;;;;58.00;32.30;;;1.80;99.90;;;;;;5061953;28;20235;-73
2022/11/20 14:27:00;;;;;;;53.67;30.93;;;1.60;99.90;;;;;;5063474;28;20224;-71
2022/11/20 14:29:50;;;;;;;54.97;31.30;;;1.60;99.90;;;;;;5046705;28;20233;-72
2022/11/20 14:32:39;;;;;;;58.17;32.10;;;1.70;99.90;;;;;;5046992;28;20231;-71
2022/11/20 14:35:30;;;;;;;56.80;31.50;;;1.70;99.90;;;;;;5059710;28;20228;-72
2022/11/20 14:38:22;;;;;;;52.87;31.17;;;1.50;99.90;;;;;;5045325;28;20969;-72
2022/11/20 14:41:19;;;;;;;58.77;31.23;;;1.50;99.90;;;;;;5045312;28;20258;-74
2022/11/20 14:44:11;;;;;;;57.50;31.73;;;1.50;99.90;;;;;;5065272;28;20215;-73
2022/11/20 14:47:03;;;;;;;60.23;31.00;;;1.50;99.90;;;;;;5067278;28;20238;-73
2022/11/20 14:49:53;;;;;;;56.27;30.10;;;1.50;99.90;;;;;;5062840;28;21065;-74
2022/11/20 14:52:54;;;;;;;51.80;29.93;;;1.50;99.90;;;;;;5050301;28;20224;-73
2022/11/20 14:55:43;;;;;;;55.37;31.03;;;1.50;99.90;;;;;;5067551;28;20237;-73
2022/11/20 14:58:34;;;;;;;53.30;31.23;;;1.50;99.90;;;;;;5051196;28;20231;-74
2022/11/20 15:01:28;;;;;;;57.07;30.13;;;1.50;99.90;;;;;;5051901;28;20224;-73
2022/11/20 15:04:16;;;;;;;55.80;30.87;;;1.40;99.90;;;;;;5050921;28;20876;-73
2022/11/20 15:07:05;;;;;;;54.50;31.07;;;1.40;99.90;;;;;;5050513;28;21166;-73
2022/11/20 15:10:01;;;;;;;57.30;30.77;;;1.40;99.90;;;;;;5049854;28;21290;-75
2022/11/20 15:12:52;;;;;;;51.83;29.70;;;1.50;99.90;;;;;;5067509;28;20899;-72
2022/11/20 15:15:47;;;;;;;53.20;29.43;;;1.40;99.90;;;;;;5062599;28;21303;-74
2022/11/20 15:18:41;;;;;;;53.17;29.00;;;1.40;99.90;;;;;;5047598;28;20613;-73
2022/11/20 15:21:30;;;;;;;57.77;30.23;;;1.40;99.90;;;;;;5062728;28;20284;-73
2022/11/20 15:24:19;;;;;;;55.57;30.73;;;1.40;99.90;;;;;;5046895;28;20233;-73
2022/11/20 15:27:09;;;;;;;56.40;29.87;;;1.40;99.90;;;;;;5063318;28;20216;-73
2022/11/20 15:29:57;;;;;;;56.43;31.03;;;1.30;99.90;;;;;;5066500;28;20763;-73
2022/11/20 15:32:48;;;;;;;56.47;30.73;;;1.30;99.90;;;;;;5048871;28;20234;-73
2022/11/20 15:35:36;;;;;;;53.70;30.37;;;1.30;99.90;;;;;;5050528;28;20796;-73
2022/11/20 15:38:25;;;;;;;51.33;29.93;;;1.20;99.90;;;;;;5046566;28;20243;-73
2022/11/20 15:41:14;;;;;;;52.70;30.50;;;1.20;99.90;;;;;;5063298;28;20704;-73
2022/11/20 15:44:03;;;;;;;52.83;29.43;;;1.10;99.90;;;;;;5064657;28;20221;-72
2022/11/20 15:46:52;;;;;;;57.53;30.43;;;1.00;99.90;;;;;;5047500;28;20220;-73
2022/11/20 15:49:42;;;;;;;54.33;29.03;;;1.00;99.90;;;;;;5048514;28;20230;-73
2022/11/20 15:52:31;;;;;;;54.23;29.03;;;1.00;99.90;;;;;;5061953;28;20239;-71
2022/11/20 15:55:29;;;;;;;50.77;28.13;;;1.00;99.90;;;;;;5050525;28;20350;-71
2022/11/20 15:58:17;;;;;;;55.60;29.63;;;0.90;99.90;;;;;;5049567;28;20243;-73
2022/11/20 16:01:06;;;;;;;51.23;28.47;;;0.90;99.90;;;;;;5066389;28;20336;-73
2022/11/20 16:03:55;;;;;;;53.80;30.07;;;0.90;99.90;;;;;;5065106;28;20595;-73
2022/11/20 16:06:45;;;;;;;49.10;28.83;;;0.80;99.90;;;;;;5048418;28;20219;-72
2022/11/20 16:09:33;;;;;;;51.73;28.10;;;0.80;99.90;;;;;;5062591;28;20232;-72
2022/11/20 16:18:31;;;;;;;49.27;28.67;;;0.80;99.90;;;;;;5064083;28;20227;-73
2022/11/20 16:21:20;;;;;;;50.23;28.60;;;0.60;99.90;;;;;;5048732;28;20733;-73
2022/11/20 16:24:12;;;;;;;48.17;27.70;;;0.60;99.90;;;;;;5068551;28;21505;-70
2022/11/20 16:27:01;;;;;;;51.43;28.37;;;0.60;99.90;;;;;;5050082;28;21007;-74
2022/11/20 16:29:50;;;;;;;52.20;28.53;;;0.60;99.90;;;;;;5061495;28;20754;-73
2022/11/20 16:32:39;;;;;;;49.53;28.37;;;0.60;99.90;;;;;;5068104;28;20658;-73
2022/11/20 16:35:28;;;;;;;55.20;28.57;;;0.50;99.90;;;;;;5067518;28;22558;-73
2022/11/20 16:38:17;;;;;;;53.87;28.47;;;0.50;99.90;;;;;;5062325;28;20314;-72